sensor_id;sensor_type;location;lat;lon;timestamp;temperature;humidity
71206;SHT31;58935;54.498;18.544;2023-02-11T00:01:38;4.52;78.54
71206;SHT31;58935;54.498;18.544;2023-02-11T00:04:06;4.53;78.49
71206;SHT31;58935;54.498;18.544;2023-02-11T00:06:32;4.53;78.42
71206;SHT31;58935;54.498;18.544;2023-02-11T00:08:59;4.54;78.32
71206;SHT31;58935;54.498;18.544;2023-02-11T00:11:26;4.55;78.23
71206;SHT31;58935;54.498;18.544;2023-02-11T00:13:55;4.54;78.26
71206;SHT31;58935;54.498;18.544;2023-02-11T00:16:21;4.55;78.18
71206;SHT31;58935;54.498;18.544;2023-02-11T00:18:50;4.55;78.23
71206;SHT31;58935;54.498;18.544;2023-02-11T00:21:19;4.55;78.28
71206;SHT31;58935;54.498;18.544;2023-02-11T00:23:49;4.54;78.24
71206;SHT31;58935;54.498;18.544;2023-02-11T00:26:18;4.55;78.15
71206;SHT31;58935;54.498;18.544;2023-02-11T00:28:45;4.55;78.06
71206;SHT31;58935;54.498;18.544;2023-02-11T00:31:12;4.56;77.97
71206;SHT31;58935;54.498;18.544;2023-02-11T00:33:38;4.57;77.93
71206;SHT31;58935;54.498;18.544;2023-02-11T00:36:04;4.59;77.77
71206;SHT31;58935;54.498;18.544;2023-02-11T00:38:32;4.59;77.66
71206;SHT31;58935;54.498;18.544;2023-02-11T00:40:57;4.62;77.53
71206;SHT31;58935;54.498;18.544;2023-02-11T00:43:23;4.63;77.41
71206;SHT31;58935;54.498;18.544;2023-02-11T00:45:49;4.64;77.24
71206;SHT31;58935;54.498;18.544;2023-02-11T00:48:14;4.64;77.18
71206;SHT31;58935;54.498;18.544;2023-02-11T00:50:40;4.65;77.15
71206;SHT31;58935;54.498;18.544;2023-02-11T00:53:05;4.66;77.21
71206;SHT31;58935;54.498;18.544;2023-02-11T00:55:31;4.66;77.34
71206;SHT31;58935;54.498;18.544;2023-02-11T00:57:57;4.66;77.37
71206;SHT31;58935;54.498;18.544;2023-02-11T01:00:24;4.67;77.31
71206;SHT31;58935;54.498;18.544;2023-02-11T01:02:52;4.68;77.32
71206;SHT31;58935;54.498;18.544;2023-02-11T01:05:18;4.67;77.35
71206;SHT31;58935;54.498;18.544;2023-02-11T01:07:47;4.68;77.39
71206;SHT31;58935;54.498;18.544;2023-02-11T01:10:12;4.68;77.41
71206;SHT31;58935;54.498;18.544;2023-02-11T01:12:38;4.67;77.34
71206;SHT31;58935;54.498;18.544;2023-02-11T01:15:04;4.68;77.17
71206;SHT31;58935;54.498;18.544;2023-02-11T01:17:32;4.69;77.06
71206;SHT31;58935;54.498;18.544;2023-02-11T01:19:58;4.70;77.06
71206;SHT31;58935;54.498;18.544;2023-02-11T01:22:25;4.70;77.09
71206;SHT31;58935;54.498;18.544;2023-02-11T01:24:51;4.70;77.14
71206;SHT31;58935;54.498;18.544;2023-02-11T01:27:16;4.71;77.23
71206;SHT31;58935;54.498;18.544;2023-02-11T01:29:42;4.70;77.33
71206;SHT31;58935;54.498;18.544;2023-02-11T01:32:08;4.69;77.44
71206;SHT31;58935;54.498;18.544;2023-02-11T01:34:33;4.68;77.66
71206;SHT31;58935;54.498;18.544;2023-02-11T01:36:59;4.67;77.73
71206;SHT31;58935;54.498;18.544;2023-02-11T01:39:25;4.65;77.94
71206;SHT31;58935;54.498;18.544;2023-02-11T01:41:52;4.62;78.22
71206;SHT31;58935;54.498;18.544;2023-02-11T01:46:48;4.56;78.64
71206;SHT31;58935;54.498;18.544;2023-02-11T01:49:15;4.54;78.89
71206;SHT31;58935;54.498;18.544;2023-02-11T01:51:47;4.51;79.25
71206;SHT31;58935;54.498;18.544;2023-02-11T01:54:19;4.47;79.71
71206;SHT31;58935;54.498;18.544;2023-02-11T01:56:50;4.44;80.02
71206;SHT31;58935;54.498;18.544;2023-02-11T01:59:21;4.40;80.27
71206;SHT31;58935;54.498;18.544;2023-02-11T02:01:54;4.38;80.48
71206;SHT31;58935;54.498;18.544;2023-02-11T02:04:22;4.35;80.65
71206;SHT31;58935;54.498;18.544;2023-02-11T02:06:59;4.32;80.97
71206;SHT31;58935;54.498;18.544;2023-02-11T02:09:30;4.29;81.18
71206;SHT31;58935;54.498;18.544;2023-02-11T02:12:02;4.29;81.26
71206;SHT31;58935;54.498;18.544;2023-02-11T02:14:27;4.28;81.36
71206;SHT31;58935;54.498;18.544;2023-02-11T02:16:53;4.25;81.60
71206;SHT31;58935;54.498;18.544;2023-02-11T02:32:46;4.19;81.85
71206;SHT31;58935;54.498;18.544;2023-02-11T02:35:35;4.18;81.97
71206;SHT31;58935;54.498;18.544;2023-02-11T02:38:12;4.18;81.97
71206;SHT31;58935;54.498;18.544;2023-02-11T02:40:49;4.17;82.12
71206;SHT31;58935;54.498;18.544;2023-02-11T02:43:21;4.14;82.33
71206;SHT31;58935;54.498;18.544;2023-02-11T02:45:52;4.12;82.56
71206;SHT31;58935;54.498;18.544;2023-02-11T02:50:50;4.07;83.29
71206;SHT31;58935;54.498;18.544;2023-02-11T02:56:19;4.00;83.77
71206;SHT31;58935;54.498;18.544;2023-02-11T02:59:11;3.98;83.93
71206;SHT31;58935;54.498;18.544;2023-02-11T03:02:04;3.97;84.12
71206;SHT31;58935;54.498;18.544;2023-02-11T03:04:38;3.97;84.32
71206;SHT31;58935;54.498;18.544;2023-02-11T03:07:17;3.97;84.47
71206;SHT31;58935;54.498;18.544;2023-02-11T03:09:56;3.98;84.40
71206;SHT31;58935;54.498;18.544;2023-02-11T03:12:27;3.97;84.44
71206;SHT31;58935;54.498;18.544;2023-02-11T03:14:55;3.97;84.56
71206;SHT31;58935;54.498;18.544;2023-02-11T03:17:22;3.97;84.68
71206;SHT31;58935;54.498;18.544;2023-02-11T03:19:50;3.96;85.05
71206;SHT31;58935;54.498;18.544;2023-02-11T03:22:17;3.97;85.17
71206;SHT31;58935;54.498;18.544;2023-02-11T03:24:46;3.96;85.18
71206;SHT31;58935;54.498;18.544;2023-02-11T03:27:16;3.95;85.58
71206;SHT31;58935;54.498;18.544;2023-02-11T03:29:57;3.95;85.56
71206;SHT31;58935;54.498;18.544;2023-02-11T03:32:47;3.95;85.45
71206;SHT31;58935;54.498;18.544;2023-02-11T03:35:25;3.95;85.41
71206;SHT31;58935;54.498;18.544;2023-02-11T03:37:58;3.96;85.51
71206;SHT31;58935;54.498;18.544;2023-02-11T03:40:34;3.95;85.79
71206;SHT31;58935;54.498;18.544;2023-02-11T03:43:05;3.96;85.67
71206;SHT31;58935;54.498;18.544;2023-02-11T03:45:34;3.96;85.66
71206;SHT31;58935;54.498;18.544;2023-02-11T03:48:03;3.96;85.74
71206;SHT31;58935;54.498;18.544;2023-02-11T03:50:35;3.96;85.84
71206;SHT31;58935;54.498;18.544;2023-02-11T03:53:03;3.97;85.95
71206;SHT31;58935;54.498;18.544;2023-02-11T03:55:30;3.97;85.95
71206;SHT31;58935;54.498;18.544;2023-02-11T03:57:59;3.98;86.09
71206;SHT31;58935;54.498;18.544;2023-02-11T04:02:55;4.00;86.37
71206;SHT31;58935;54.498;18.544;2023-02-11T04:05:23;4.01;86.49
71206;SHT31;58935;54.498;18.544;2023-02-11T04:07:48;4.01;86.54
71206;SHT31;58935;54.498;18.544;2023-02-11T04:10:13;4.02;86.70
71206;SHT31;58935;54.498;18.544;2023-02-11T04:12:39;4.02;86.71
71206;SHT31;58935;54.498;18.544;2023-02-11T04:15:05;4.01;86.80
71206;SHT31;58935;54.498;18.544;2023-02-11T04:17:31;4.03;86.82
71206;SHT31;58935;54.498;18.544;2023-02-11T04:19:56;4.04;86.86
71206;SHT31;58935;54.498;18.544;2023-02-11T04:22:22;4.05;86.86
71206;SHT31;58935;54.498;18.544;2023-02-11T04:24:47;4.07;86.90
71206;SHT31;58935;54.498;18.544;2023-02-11T04:27:13;4.10;86.99
71206;SHT31;58935;54.498;18.544;2023-02-11T04:29:41;4.11;86.95
71206;SHT31;58935;54.498;18.544;2023-02-11T04:32:07;4.13;87.01
71206;SHT31;58935;54.498;18.544;2023-02-11T04:34:33;4.14;86.97
71206;SHT31;58935;54.498;18.544;2023-02-11T04:36:58;4.16;87.07
71206;SHT31;58935;54.498;18.544;2023-02-11T04:39:24;4.19;87.03
71206;SHT31;58935;54.498;18.544;2023-02-11T04:41:49;4.21;86.95
71206;SHT31;58935;54.498;18.544;2023-02-11T04:44:15;4.22;86.94
71206;SHT31;58935;54.498;18.544;2023-02-11T04:46:40;4.24;86.94
71206;SHT31;58935;54.498;18.544;2023-02-11T04:49:10;4.27;86.85
71206;SHT31;58935;54.498;18.544;2023-02-11T04:51:38;4.28;86.82
71206;SHT31;58935;54.498;18.544;2023-02-11T04:54:03;4.29;86.89
71206;SHT31;58935;54.498;18.544;2023-02-11T04:56:29;4.29;87.20
71206;SHT31;58935;54.498;18.544;2023-02-11T04:58:54;4.31;87.30
71206;SHT31;58935;54.498;18.544;2023-02-11T05:01:20;4.32;87.38
71206;SHT31;58935;54.498;18.544;2023-02-11T05:03:45;4.33;87.30
71206;SHT31;58935;54.498;18.544;2023-02-11T05:06:11;4.34;87.35
71206;SHT31;58935;54.498;18.544;2023-02-11T05:08:37;4.36;87.29
71206;SHT31;58935;54.498;18.544;2023-02-11T05:11:03;4.38;87.27
71206;SHT31;58935;54.498;18.544;2023-02-11T05:13:30;4.40;87.30
71206;SHT31;58935;54.498;18.544;2023-02-11T05:15:56;4.42;87.30
71206;SHT31;58935;54.498;18.544;2023-02-11T05:18:21;4.43;87.23
71206;SHT31;58935;54.498;18.544;2023-02-11T05:20:52;4.47;87.24
71206;SHT31;58935;54.498;18.544;2023-02-11T05:23:17;4.50;87.21
71206;SHT31;58935;54.498;18.544;2023-02-11T05:25:43;4.54;87.13
71206;SHT31;58935;54.498;18.544;2023-02-11T05:28:08;4.57;87.00
71206;SHT31;58935;54.498;18.544;2023-02-11T05:30:36;4.61;87.05
71206;SHT31;58935;54.498;18.544;2023-02-11T05:33:02;4.64;86.99
71206;SHT31;58935;54.498;18.544;2023-02-11T05:35:27;4.68;86.96
71206;SHT31;58935;54.498;18.544;2023-02-11T05:37:53;4.71;86.91
71206;SHT31;58935;54.498;18.544;2023-02-11T05:40:18;4.75;86.85
71206;SHT31;58935;54.498;18.544;2023-02-11T05:42:44;4.80;86.81
71206;SHT31;58935;54.498;18.544;2023-02-11T05:45:09;4.84;86.76
71206;SHT31;58935;54.498;18.544;2023-02-11T05:47:35;4.88;86.70
71206;SHT31;58935;54.498;18.544;2023-02-11T05:50:00;4.93;86.68
71206;SHT31;58935;54.498;18.544;2023-02-11T05:52:28;4.98;86.55
71206;SHT31;58935;54.498;18.544;2023-02-11T05:54:54;5.02;86.50
71206;SHT31;58935;54.498;18.544;2023-02-11T05:57:19;5.06;86.53
71206;SHT31;58935;54.498;18.544;2023-02-11T05:59:45;5.09;86.42
71206;SHT31;58935;54.498;18.544;2023-02-11T06:02:11;5.16;86.42
71206;SHT31;58935;54.498;18.544;2023-02-11T06:04:37;5.20;86.32
71206;SHT31;58935;54.498;18.544;2023-02-11T06:07:03;5.24;86.31
71206;SHT31;58935;54.498;18.544;2023-02-11T06:09:29;5.28;86.22
71206;SHT31;58935;54.498;18.544;2023-02-11T06:11:54;5.31;86.14
71206;SHT31;58935;54.498;18.544;2023-02-11T06:14:20;5.36;86.10
71206;SHT31;58935;54.498;18.544;2023-02-11T06:16:46;5.38;86.04
71206;SHT31;58935;54.498;18.544;2023-02-11T06:19:11;5.43;85.98
71206;SHT31;58935;54.498;18.544;2023-02-11T06:21:37;5.47;85.92
71206;SHT31;58935;54.498;18.544;2023-02-11T06:24:03;5.51;85.96
71206;SHT31;58935;54.498;18.544;2023-02-11T06:26:30;5.54;85.82
71206;SHT31;58935;54.498;18.544;2023-02-11T06:28:58;5.59;85.78
71206;SHT31;58935;54.498;18.544;2023-02-11T06:31:24;5.63;85.70
71206;SHT31;58935;54.498;18.544;2023-02-11T06:33:50;5.68;85.61
71206;SHT31;58935;54.498;18.544;2023-02-11T06:36:18;5.70;85.51
71206;SHT31;58935;54.498;18.544;2023-02-11T06:38:45;5.73;85.51
71206;SHT31;58935;54.498;18.544;2023-02-11T06:41:11;5.76;85.50
71206;SHT31;58935;54.498;18.544;2023-02-11T06:43:39;5.79;85.43
71206;SHT31;58935;54.498;18.544;2023-02-11T06:46:07;5.82;85.40
71206;SHT31;58935;54.498;18.544;2023-02-11T06:48:33;5.84;85.39
71206;SHT31;58935;54.498;18.544;2023-02-11T06:51:01;5.87;85.35
71206;SHT31;58935;54.498;18.544;2023-02-11T06:53:31;5.91;85.29
71206;SHT31;58935;54.498;18.544;2023-02-11T06:56:01;5.95;85.30
71206;SHT31;58935;54.498;18.544;2023-02-11T06:58:29;5.97;85.24
71206;SHT31;58935;54.498;18.544;2023-02-11T07:00:54;6.00;85.24
71206;SHT31;58935;54.498;18.544;2023-02-11T07:03:20;6.04;85.30
71206;SHT31;58935;54.498;18.544;2023-02-11T07:05:45;6.06;85.29
71206;SHT31;58935;54.498;18.544;2023-02-11T07:08:11;6.09;85.25
71206;SHT31;58935;54.498;18.544;2023-02-11T07:10:39;6.12;85.20
71206;SHT31;58935;54.498;18.544;2023-02-11T07:13:04;6.17;85.16
71206;SHT31;58935;54.498;18.544;2023-02-11T07:15:30;6.18;85.22
71206;SHT31;58935;54.498;18.544;2023-02-11T07:17:56;6.20;85.22
71206;SHT31;58935;54.498;18.544;2023-02-11T07:20:21;6.23;85.11
71206;SHT31;58935;54.498;18.544;2023-02-11T07:22:47;6.26;85.10
71206;SHT31;58935;54.498;18.544;2023-02-11T07:25:12;6.28;84.96
71206;SHT31;58935;54.498;18.544;2023-02-11T07:27:38;6.30;84.81
71206;SHT31;58935;54.498;18.544;2023-02-11T07:30:04;6.32;84.73
71206;SHT31;58935;54.498;18.544;2023-02-11T07:32:29;6.36;84.61
71206;SHT31;58935;54.498;18.544;2023-02-11T07:34:55;6.37;84.51
71206;SHT31;58935;54.498;18.544;2023-02-11T07:37:21;6.39;84.39
71206;SHT31;58935;54.498;18.544;2023-02-11T07:39:47;6.42;84.32
71206;SHT31;58935;54.498;18.544;2023-02-11T07:42:12;6.46;84.34
71206;SHT31;58935;54.498;18.544;2023-02-11T07:44:38;6.49;84.17
71206;SHT31;58935;54.498;18.544;2023-02-11T07:47:03;6.53;83.99
71206;SHT31;58935;54.498;18.544;2023-02-11T07:49:29;6.57;83.93
71206;SHT31;58935;54.498;18.544;2023-02-11T07:51:56;6.59;83.85
71206;SHT31;58935;54.498;18.544;2023-02-11T07:54:22;6.63;83.78
71206;SHT31;58935;54.498;18.544;2023-02-11T07:56:47;6.65;83.57
71206;SHT31;58935;54.498;18.544;2023-02-11T07:59:13;6.68;83.62
71206;SHT31;58935;54.498;18.544;2023-02-11T08:01:41;6.71;83.38
71206;SHT31;58935;54.498;18.544;2023-02-11T08:04:07;6.72;83.23
71206;SHT31;58935;54.498;18.544;2023-02-11T08:06:33;6.73;83.28
71206;SHT31;58935;54.498;18.544;2023-02-11T08:09:04;6.73;83.30
71206;SHT31;58935;54.498;18.544;2023-02-11T08:11:31;6.73;83.33
71206;SHT31;58935;54.498;18.544;2023-02-11T08:13:56;6.73;83.37
71206;SHT31;58935;54.498;18.544;2023-02-11T08:16:23;6.75;83.28
71206;SHT31;58935;54.498;18.544;2023-02-11T08:18:54;6.75;83.39
71206;SHT31;58935;54.498;18.544;2023-02-11T08:21:22;6.74;83.47
71206;SHT31;58935;54.498;18.544;2023-02-11T08:23:48;6.74;83.50
71206;SHT31;58935;54.498;18.544;2023-02-11T08:26:15;6.76;83.50
71206;SHT31;58935;54.498;18.544;2023-02-11T08:28:45;6.78;83.44
71206;SHT31;58935;54.498;18.544;2023-02-11T08:31:12;6.80;83.33
71206;SHT31;58935;54.498;18.544;2023-02-11T08:33:39;6.83;83.26
71206;SHT31;58935;54.498;18.544;2023-02-11T08:36:07;6.84;83.29
71206;SHT31;58935;54.498;18.544;2023-02-11T08:38:34;6.84;83.32
71206;SHT31;58935;54.498;18.544;2023-02-11T08:40:59;6.86;83.40
71206;SHT31;58935;54.498;18.544;2023-02-11T08:43:25;6.86;83.48
71206;SHT31;58935;54.498;18.544;2023-02-11T08:45:50;6.86;83.52
71206;SHT31;58935;54.498;18.544;2023-02-11T08:48:16;6.89;83.60
71206;SHT31;58935;54.498;18.544;2023-02-11T08:50:42;6.90;83.44
71206;SHT31;58935;54.498;18.544;2023-02-11T08:53:10;6.91;83.47
71206;SHT31;58935;54.498;18.544;2023-02-11T08:55:35;6.92;83.40
71206;SHT31;58935;54.498;18.544;2023-02-11T08:58:01;6.94;83.40
71206;SHT31;58935;54.498;18.544;2023-02-11T09:00:27;6.95;83.48
71206;SHT31;58935;54.498;18.544;2023-02-11T09:02:55;6.98;83.63
71206;SHT31;58935;54.498;18.544;2023-02-11T09:05:23;7.01;83.74
71206;SHT31;58935;54.498;18.544;2023-02-11T09:07:48;7.05;83.93
71206;SHT31;58935;54.498;18.544;2023-02-11T09:10:16;7.08;84.17
71206;SHT31;58935;54.498;18.544;2023-02-11T09:12:41;7.08;84.26
71206;SHT31;58935;54.498;18.544;2023-02-11T09:15:07;7.07;84.24
71206;SHT31;58935;54.498;18.544;2023-02-11T09:17:35;7.07;84.27
71206;SHT31;58935;54.498;18.544;2023-02-11T09:20:03;7.12;84.20
71206;SHT31;58935;54.498;18.544;2023-02-11T09:22:31;7.19;84.21
71206;SHT31;58935;54.498;18.544;2023-02-11T09:24:58;7.26;84.34
71206;SHT31;58935;54.498;18.544;2023-02-11T09:27:24;7.33;84.38
71206;SHT31;58935;54.498;18.544;2023-02-11T09:29:49;7.37;84.19
71206;SHT31;58935;54.498;18.544;2023-02-11T09:32:15;7.37;84.04
71206;SHT31;58935;54.498;18.544;2023-02-11T09:34:40;7.35;83.77
71206;SHT31;58935;54.498;18.544;2023-02-11T09:37:06;7.32;83.68
71206;SHT31;58935;54.498;18.544;2023-02-11T09:39:31;7.29;83.74
71206;SHT31;58935;54.498;18.544;2023-02-11T09:42:03;7.26;83.74
71206;SHT31;58935;54.498;18.544;2023-02-11T09:44:44;7.26;83.77
71206;SHT31;58935;54.498;18.544;2023-02-11T09:49:48;7.25;84.31
71206;SHT31;58935;54.498;18.544;2023-02-11T09:52:20;7.21;84.44
71206;SHT31;58935;54.498;18.544;2023-02-11T09:54:54;7.18;84.89
71206;SHT31;58935;54.498;18.544;2023-02-11T09:57:22;7.21;85.03
71206;SHT31;58935;54.498;18.544;2023-02-11T09:59:52;7.25;85.13
71206;SHT31;58935;54.498;18.544;2023-02-11T10:08:00;7.56;84.55
71206;SHT31;58935;54.498;18.544;2023-02-11T10:10:28;7.66;84.08
71206;SHT31;58935;54.498;18.544;2023-02-11T10:16:04;7.73;83.59
71206;SHT31;58935;54.498;18.544;2023-02-11T10:21:26;7.71;83.34
71206;SHT31;58935;54.498;18.544;2023-02-11T10:23:56;7.68;83.38
71206;SHT31;58935;54.498;18.544;2023-02-11T10:26:26;7.66;83.35
71206;SHT31;58935;54.498;18.544;2023-02-11T10:28:55;7.66;83.36
71206;SHT31;58935;54.498;18.544;2023-02-11T10:31:26;7.66;83.39
71206;SHT31;58935;54.498;18.544;2023-02-11T10:34:01;7.67;83.51
71206;SHT31;58935;54.498;18.544;2023-02-11T10:36:32;7.69;83.52
71206;SHT31;58935;54.498;18.544;2023-02-11T10:38:59;7.69;83.60
71206;SHT31;58935;54.498;18.544;2023-02-11T10:41:29;7.68;83.83
71206;SHT31;58935;54.498;18.544;2023-02-11T10:43:59;7.67;84.01
71206;SHT31;58935;54.498;18.544;2023-02-11T10:46:28;7.68;83.99
71206;SHT31;58935;54.498;18.544;2023-02-11T10:48:57;7.69;84.00
71206;SHT31;58935;54.498;18.544;2023-02-11T10:51:24;7.69;83.90
71206;SHT31;58935;54.498;18.544;2023-02-11T10:56:44;7.78;83.63
71206;SHT31;58935;54.498;18.544;2023-02-11T11:04:36;7.97;82.59
71206;SHT31;58935;54.498;18.544;2023-02-11T11:09:54;8.04;82.04
71206;SHT31;58935;54.498;18.544;2023-02-11T11:12:34;8.08;81.84
71206;SHT31;58935;54.498;18.544;2023-02-11T11:15:14;8.11;81.76
71206;SHT31;58935;54.498;18.544;2023-02-11T11:17:44;8.12;81.70
71206;SHT31;58935;54.498;18.544;2023-02-11T11:20:12;8.12;81.48
71206;SHT31;58935;54.498;18.544;2023-02-11T11:22:43;8.11;81.40
71206;SHT31;58935;54.498;18.544;2023-02-11T11:27:40;8.09;81.41
71206;SHT31;58935;54.498;18.544;2023-02-11T11:30:10;8.08;81.27
71206;SHT31;58935;54.498;18.544;2023-02-11T11:32:40;8.07;81.11
71206;SHT31;58935;54.498;18.544;2023-02-11T11:35:07;8.08;81.10
71206;SHT31;58935;54.498;18.544;2023-02-11T11:37:51;8.12;80.94
71206;SHT31;58935;54.498;18.544;2023-02-11T11:40:22;8.15;80.90
71206;SHT31;58935;54.498;18.544;2023-02-11T11:45:24;8.24;80.64
71206;SHT31;58935;54.498;18.544;2023-02-11T11:47:53;8.26;80.58
71206;SHT31;58935;54.498;18.544;2023-02-11T11:53:13;8.34;80.34
71206;SHT31;58935;54.498;18.544;2023-02-11T11:55:47;8.37;79.97
71206;SHT31;58935;54.498;18.544;2023-02-11T11:58:20;8.41;79.71
71206;SHT31;58935;54.498;18.544;2023-02-11T12:04:11;8.45;79.21
71206;SHT31;58935;54.498;18.544;2023-02-11T12:14:23;8.67;78.41
71206;SHT31;58935;54.498;18.544;2023-02-11T12:17:15;8.72;78.12
71206;SHT31;58935;54.498;18.544;2023-02-11T12:20:11;8.75;77.96
71206;SHT31;58935;54.498;18.544;2023-02-11T12:22:47;8.82;77.94
71206;SHT31;58935;54.498;18.544;2023-02-11T12:28:06;8.90;77.62
71206;SHT31;58935;54.498;18.544;2023-02-11T12:33:30;8.90;77.19
71206;SHT31;58935;54.498;18.544;2023-02-11T12:36:05;8.89;77.04
71206;SHT31;58935;54.498;18.544;2023-02-11T12:44:01;8.92;77.10
71206;SHT31;58935;54.498;18.544;2023-02-11T12:46:32;8.93;77.03
71206;SHT31;58935;54.498;18.544;2023-02-11T12:49:08;8.92;76.82
71206;SHT31;58935;54.498;18.544;2023-02-11T12:54:27;8.90;77.00
71206;SHT31;58935;54.498;18.544;2023-02-11T12:57:02;8.88;76.94
71206;SHT31;58935;54.498;18.544;2023-02-11T13:02:05;8.89;76.82
71206;SHT31;58935;54.498;18.544;2023-02-11T13:04:51;8.88;76.80
71206;SHT31;58935;54.498;18.544;2023-02-11T13:07:25;8.87;76.82
71206;SHT31;58935;54.498;18.544;2023-02-11T13:09:58;8.85;76.74
71206;SHT31;58935;54.498;18.544;2023-02-11T13:12:31;8.85;76.88
71206;SHT31;58935;54.498;18.544;2023-02-11T13:15:06;8.87;76.92
71206;SHT31;58935;54.498;18.544;2023-02-11T13:17:48;8.88;76.70
71206;SHT31;58935;54.498;18.544;2023-02-11T13:23:00;8.93;76.66
71206;SHT31;58935;54.498;18.544;2023-02-11T13:26:19;8.92;76.55
71206;SHT31;58935;54.498;18.544;2023-02-11T13:28:55;8.88;76.59
71206;SHT31;58935;54.498;18.544;2023-02-11T13:31:33;8.89;76.80
71206;SHT31;58935;54.498;18.544;2023-02-11T13:33:59;8.90;76.76
71206;SHT31;58935;54.498;18.544;2023-02-11T13:36:25;8.90;76.43
71206;SHT31;58935;54.498;18.544;2023-02-11T13:38:58;8.89;76.48
71206;SHT31;58935;54.498;18.544;2023-02-11T13:41:29;8.85;76.27
71206;SHT31;58935;54.498;18.544;2023-02-11T13:43:58;8.83;76.38
71206;SHT31;58935;54.498;18.544;2023-02-11T13:46:28;8.83;76.50
71206;SHT31;58935;54.498;18.544;2023-02-11T13:49:16;8.82;76.54
71206;SHT31;58935;54.498;18.544;2023-02-11T13:51:45;8.81;76.59
71206;SHT31;58935;54.498;18.544;2023-02-11T13:54:18;8.78;76.51
71206;SHT31;58935;54.498;18.544;2023-02-11T13:57:14;8.77;76.57
71206;SHT31;58935;54.498;18.544;2023-02-11T13:59:55;8.76;76.70
71206;SHT31;58935;54.498;18.544;2023-02-11T14:02:25;8.76;76.69
71206;SHT31;58935;54.498;18.544;2023-02-11T14:07:31;8.70;76.62
71206;SHT31;58935;54.498;18.544;2023-02-11T14:10:00;8.65;76.76
71206;SHT31;58935;54.498;18.544;2023-02-11T14:12:31;8.65;76.91
71206;SHT31;58935;54.498;18.544;2023-02-11T14:14:59;8.64;77.02
71206;SHT31;58935;54.498;18.544;2023-02-11T14:17:42;8.61;77.01
71206;SHT31;58935;54.498;18.544;2023-02-11T14:22:56;8.59;76.84
71206;SHT31;58935;54.498;18.544;2023-02-11T14:25:23;8.57;76.78
71206;SHT31;58935;54.498;18.544;2023-02-11T14:27:51;8.54;76.74
71206;SHT31;58935;54.498;18.544;2023-02-11T14:30:25;8.50;76.75
71206;SHT31;58935;54.498;18.544;2023-02-11T14:33:05;8.47;76.72
71206;SHT31;58935;54.498;18.544;2023-02-11T14:40:45;8.36;77.05
71206;SHT31;58935;54.498;18.544;2023-02-11T14:43:22;8.32;76.99
71206;SHT31;58935;54.498;18.544;2023-02-11T14:45:52;8.28;77.11
71206;SHT31;58935;54.498;18.544;2023-02-11T14:48:21;8.26;77.50
71206;SHT31;58935;54.498;18.544;2023-02-11T14:50:53;8.22;77.94
71206;SHT31;58935;54.498;18.544;2023-02-11T14:53:24;8.17;78.50
71206;SHT31;58935;54.498;18.544;2023-02-11T14:55:52;8.11;79.14
71206;SHT31;58935;54.498;18.544;2023-02-11T14:58:21;8.03;79.55
71206;SHT31;58935;54.498;18.544;2023-02-11T15:05:53;7.75;80.90
71206;SHT31;58935;54.498;18.544;2023-02-11T15:08:21;7.67;81.17
71206;SHT31;58935;54.498;18.544;2023-02-11T15:10:47;7.62;81.25
71206;SHT31;58935;54.498;18.544;2023-02-11T15:13:17;7.54;81.33
71206;SHT31;58935;54.498;18.544;2023-02-11T15:15:44;7.47;81.48
71206;SHT31;58935;54.498;18.544;2023-02-11T15:18:15;7.43;81.53
71206;SHT31;58935;54.498;18.544;2023-02-11T15:20:46;7.38;81.49
71206;SHT31;58935;54.498;18.544;2023-02-11T15:23:16;7.32;81.50
71206;SHT31;58935;54.498;18.544;2023-02-11T15:25:46;7.26;81.58
71206;SHT31;58935;54.498;18.544;2023-02-11T15:28:21;7.20;81.56
71206;SHT31;58935;54.498;18.544;2023-02-11T15:33:21;7.10;81.68
71206;SHT31;58935;54.498;18.544;2023-02-11T15:35:49;7.05;81.64
71206;SHT31;58935;54.498;18.544;2023-02-11T15:38:15;6.98;81.56
71206;SHT31;58935;54.498;18.544;2023-02-11T15:40:50;6.94;81.60
71206;SHT31;58935;54.498;18.544;2023-02-11T15:43:18;6.89;81.65
71206;SHT31;58935;54.498;18.544;2023-02-11T15:45:55;6.85;81.70
71206;SHT31;58935;54.498;18.544;2023-02-11T15:48:27;6.81;81.76
71206;SHT31;58935;54.498;18.544;2023-02-11T15:51:00;6.77;81.76
71206;SHT31;58935;54.498;18.544;2023-02-11T15:53:30;6.75;81.65
71206;SHT31;58935;54.498;18.544;2023-02-11T15:58:50;6.71;81.39
71206;SHT31;58935;54.498;18.544;2023-02-11T16:01:27;6.69;81.29
71206;SHT31;58935;54.498;18.544;2023-02-11T16:03:55;6.67;81.08
71206;SHT31;58935;54.498;18.544;2023-02-11T16:06:22;6.64;80.69
71206;SHT31;58935;54.498;18.544;2023-02-11T16:11:24;6.59;80.40
71206;SHT31;58935;54.498;18.544;2023-02-11T16:13:54;6.57;80.41
71206;SHT31;58935;54.498;18.544;2023-02-11T16:16:22;6.55;80.39
71206;SHT31;58935;54.498;18.544;2023-02-11T16:18:50;6.50;80.37
71206;SHT31;58935;54.498;18.544;2023-02-11T16:21:18;6.41;80.45
71206;SHT31;58935;54.498;18.544;2023-02-11T16:28:50;6.05;81.19
71206;SHT31;58935;54.498;18.544;2023-02-11T16:31:16;5.94;81.57
71206;SHT31;58935;54.498;18.544;2023-02-11T16:33:45;5.86;81.69
71206;SHT31;58935;54.498;18.544;2023-02-11T16:36:12;5.80;81.74
71206;SHT31;58935;54.498;18.544;2023-02-11T16:38:41;5.76;81.84
71206;SHT31;58935;54.498;18.544;2023-02-11T16:41:06;5.69;81.99
71206;SHT31;58935;54.498;18.544;2023-02-11T16:43:36;5.64;82.12
71206;SHT31;58935;54.498;18.544;2023-02-11T16:46:01;5.56;82.13
71206;SHT31;58935;54.498;18.544;2023-02-11T16:48:28;5.44;81.81
71206;SHT31;58935;54.498;18.544;2023-02-11T16:50:54;5.34;81.86
71206;SHT31;58935;54.498;18.544;2023-02-11T16:53:20;5.21;81.72
71206;SHT31;58935;54.498;18.544;2023-02-11T16:55:49;5.11;82.03
71206;SHT31;58935;54.498;18.544;2023-02-11T16:58:15;5.02;82.24
71206;SHT31;58935;54.498;18.544;2023-02-11T17:00:41;4.95;82.24
71206;SHT31;58935;54.498;18.544;2023-02-11T17:03:09;4.89;82.22
71206;SHT31;58935;54.498;18.544;2023-02-11T17:05:40;4.83;82.14
71206;SHT31;58935;54.498;18.544;2023-02-11T17:08:06;4.75;81.31
71206;SHT31;58935;54.498;18.544;2023-02-11T17:10:31;4.68;81.07
71206;SHT31;58935;54.498;18.544;2023-02-11T17:12:57;4.60;80.94
71206;SHT31;58935;54.498;18.544;2023-02-11T17:15:22;4.53;80.58
71206;SHT31;58935;54.498;18.544;2023-02-11T17:17:48;4.47;80.75
71206;SHT31;58935;54.498;18.544;2023-02-11T17:20:14;4.43;80.57
71206;SHT31;58935;54.498;18.544;2023-02-11T17:22:40;4.36;79.49
71206;SHT31;58935;54.498;18.544;2023-02-11T17:25:06;4.28;79.47
71206;SHT31;58935;54.498;18.544;2023-02-11T17:27:32;4.26;79.73
71206;SHT31;58935;54.498;18.544;2023-02-11T17:29:58;4.22;79.65
71206;SHT31;58935;54.498;18.544;2023-02-11T17:32:24;4.18;79.41
71206;SHT31;58935;54.498;18.544;2023-02-11T17:34:51;4.16;79.05
71206;SHT31;58935;54.498;18.544;2023-02-11T17:37:17;4.10;77.94